sensor_id;sensor_type;location;lat;lon;timestamp;pressure;altitude;pressure_sealevel;temperature;humidity
8253;BME280;61313;48.396;10.008;2023-02-21T00:01:26;96674.22;;;8.64;53.54
8253;BME280;61313;48.396;10.008;2023-02-21T00:04:10;96682.22;;;8.59;53.55
8253;BME280;61313;48.396;10.008;2023-02-21T00:06:54;96681.63;;;8.51;54.11
8253;BME280;61313;48.396;10.008;2023-02-21T00:09:38;96686.03;;;8.49;53.79
8253;BME280;61313;48.396;10.008;2023-02-21T00:12:22;96673.09;;;8.44;53.88
8253;BME280;61313;48.396;10.008;2023-02-21T00:15:06;96672.25;;;8.44;54.74
8253;BME280;61313;48.396;10.008;2023-02-21T00:17:50;96681.94;;;8.40;54.28
8253;BME280;61313;48.396;10.008;2023-02-21T00:20:34;96674.56;;;8.23;55.35
8253;BME280;61313;48.396;10.008;2023-02-21T00:23:18;96687.47;;;8.30;54.66
8253;BME280;61313;48.396;10.008;2023-02-21T00:26:02;96682.63;;;8.17;55.09
8253;BME280;61313;48.396;10.008;2023-02-21T00:28:46;96678.44;;;8.10;55.59
8253;BME280;61313;48.396;10.008;2023-02-21T00:31:30;96676.38;;;8.21;55.37
8253;BME280;61313;48.396;10.008;2023-02-21T00:34:14;96673.88;;;8.18;55.22
8253;BME280;61313;48.396;10.008;2023-02-21T00:36:58;96667.13;;;8.10;56.29
8253;BME280;61313;48.396;10.008;2023-02-21T00:39:41;96667.34;;;8.03;56.04
8253;BME280;61313;48.396;10.008;2023-02-21T00:42:25;96664.94;;;7.96;56.18
8253;BME280;61313;48.396;10.008;2023-02-21T00:45:09;96655.22;;;8.01;56.54
8253;BME280;61313;48.396;10.008;2023-02-21T00:47:53;96654.91;;;8.10;56.46
8253;BME280;61313;48.396;10.008;2023-02-21T00:50:40;96660.44;;;8.01;56.79
8253;BME280;61313;48.396;10.008;2023-02-21T00:53:24;96660.88;;;7.85;56.95
8253;BME280;61313;48.396;10.008;2023-02-21T00:56:08;96673.13;;;7.83;56.88
8253;BME280;61313;48.396;10.008;2023-02-21T00:58:52;96652.19;;;7.85;57.38
8253;BME280;61313;48.396;10.008;2023-02-21T01:01:36;96645.47;;;7.76;57.24
8253;BME280;61313;48.396;10.008;2023-02-21T01:04:20;96645.56;;;7.73;57.11
8253;BME280;61313;48.396;10.008;2023-02-21T01:07:04;96642.41;;;7.62;57.33
8253;BME280;61313;48.396;10.008;2023-02-21T01:09:48;96640.94;;;7.52;57.56
8253;BME280;61313;48.396;10.008;2023-02-21T01:12:32;96644.25;;;7.58;57.47
8253;BME280;61313;48.396;10.008;2023-02-21T01:15:16;96639.66;;;7.67;57.05
8253;BME280;61313;48.396;10.008;2023-02-21T01:18:01;96643.19;;;7.66;57.06
8253;BME280;61313;48.396;10.008;2023-02-21T01:20:45;96636.19;;;7.66;57.15
8253;BME280;61313;48.396;10.008;2023-02-21T01:23:30;96642.13;;;7.71;56.35
8253;BME280;61313;48.396;10.008;2023-02-21T01:26:15;96633.69;;;7.63;56.47
8253;BME280;61313;48.396;10.008;2023-02-21T01:28:58;96633.88;;;7.55;56.94
8253;BME280;61313;48.396;10.008;2023-02-21T01:31:42;96635.59;;;7.56;56.65
8253;BME280;61313;48.396;10.008;2023-02-21T01:34:26;96640.94;;;7.52;57.02
8253;BME280;61313;48.396;10.008;2023-02-21T01:37:10;96642.84;;;7.47;57.00
8253;BME280;61313;48.396;10.008;2023-02-21T01:39:54;96634.91;;;7.50;56.99
8253;BME280;61313;48.396;10.008;2023-02-21T01:42:38;96642.28;;;7.35;57.32
8253;BME280;61313;48.396;10.008;2023-02-21T01:48:08;96629.94;;;7.40;57.41
8253;BME280;61313;48.396;10.008;2023-02-21T01:50:54;96624.25;;;7.26;57.66
8253;BME280;61313;48.396;10.008;2023-02-21T01:53:38;96613.56;;;7.35;57.59
8253;BME280;61313;48.396;10.008;2023-02-21T01:56:22;96611.03;;;7.32;57.63
8253;BME280;61313;48.396;10.008;2023-02-21T01:59:07;96620.09;;;7.19;57.78
8253;BME280;61313;48.396;10.008;2023-02-21T02:02:04;96614.03;;;7.18;57.81
8253;BME280;61313;48.396;10.008;2023-02-21T02:04:51;96609.28;;;7.00;57.86
8253;BME280;61313;48.396;10.008;2023-02-21T02:07:36;96603.94;;;7.05;58.22
8253;BME280;61313;48.396;10.008;2023-02-21T02:10:20;96609.94;;;7.08;58.22
8253;BME280;61313;48.396;10.008;2023-02-21T02:16:29;96612.22;;;6.88;58.57
8253;BME280;61313;48.396;10.008;2023-02-21T02:24:59;96600.50;;;6.70;58.51
8253;BME280;61313;48.396;10.008;2023-02-21T02:27:54;96600.03;;;6.88;57.75
8253;BME280;61313;48.396;10.008;2023-02-21T02:36:20;96596.94;;;6.74;57.24
8253;BME280;61313;48.396;10.008;2023-02-21T02:38:58;96600.34;;;6.76;56.67
8253;BME280;61313;48.396;10.008;2023-02-21T02:44:13;96589.91;;;6.76;56.80
8253;BME280;61313;48.396;10.008;2023-02-21T02:46:40;96584.75;;;6.73;56.73
8253;BME280;61313;48.396;10.008;2023-02-21T02:49:12;96589.09;;;6.74;56.85
8253;BME280;61313;48.396;10.008;2023-02-21T02:51:38;96588.13;;;6.78;56.69
8253;BME280;61313;48.396;10.008;2023-02-21T02:54:04;96585.34;;;6.84;56.34
8253;BME280;61313;48.396;10.008;2023-02-21T02:56:29;96582.09;;;6.76;56.66
8253;BME280;61313;48.396;10.008;2023-02-21T02:59:08;96582.13;;;6.74;56.42
8253;BME280;61313;48.396;10.008;2023-02-21T03:14:43;96595.81;;;6.48;57.51
8253;BME280;61313;48.396;10.008;2023-02-21T03:17:12;96588.59;;;6.60;57.41
8253;BME280;61313;48.396;10.008;2023-02-21T03:19:43;96587.19;;;6.46;57.46
8253;BME280;61313;48.396;10.008;2023-02-21T03:22:17;96584.34;;;6.55;57.21
8253;BME280;61313;48.396;10.008;2023-02-21T03:24:45;96592.91;;;6.61;56.81
8253;BME280;61313;48.396;10.008;2023-02-21T03:27:13;96591.94;;;6.65;56.62
8253;BME280;61313;48.396;10.008;2023-02-21T03:29:40;96589.03;;;6.41;57.31
8253;BME280;61313;48.396;10.008;2023-02-21T03:32:23;96582.00;;;6.45;57.57
8253;BME280;61313;48.396;10.008;2023-02-21T03:34:49;96585.53;;;6.42;57.01
8253;BME280;61313;48.396;10.008;2023-02-21T03:39:57;96588.75;;;6.53;56.48
8253;BME280;61313;48.396;10.008;2023-02-21T03:42:23;96597.69;;;6.43;56.99
8253;BME280;61313;48.396;10.008;2023-02-21T03:44:48;96588.91;;;6.47;56.80
8253;BME280;61313;48.396;10.008;2023-02-21T03:47:14;96593.44;;;6.39;57.06
8253;BME280;61313;48.396;10.008;2023-02-21T03:49:39;96592.69;;;6.34;56.85
8253;BME280;61313;48.396;10.008;2023-02-21T03:52:05;96591.97;;;6.27;57.25
8253;BME280;61313;48.396;10.008;2023-02-21T03:54:30;96588.41;;;6.31;57.50
8253;BME280;61313;48.396;10.008;2023-02-21T03:56:56;96574.81;;;6.19;57.89
8253;BME280;61313;48.396;10.008;2023-02-21T03:59:21;96587.63;;;6.28;57.24
8253;BME280;61313;48.396;10.008;2023-02-21T04:01:46;96584.47;;;6.15;57.22
8253;BME280;61313;48.396;10.008;2023-02-21T04:04:12;96586.44;;;6.04;58.11
8253;BME280;61313;48.396;10.008;2023-02-21T04:06:37;96588.75;;;6.16;57.19
8253;BME280;61313;48.396;10.008;2023-02-21T04:09:03;96592.47;;;6.07;57.28
8253;BME280;61313;48.396;10.008;2023-02-21T04:11:29;96584.66;;;6.07;57.18
8253;BME280;61313;48.396;10.008;2023-02-21T04:13:55;96587.31;;;6.04;57.22
8253;BME280;61313;48.396;10.008;2023-02-21T04:16:20;96589.78;;;6.10;56.64
8253;BME280;61313;48.396;10.008;2023-02-21T04:18:46;96587.28;;;6.06;56.82
8253;BME280;61313;48.396;10.008;2023-02-21T04:21:15;96584.66;;;6.07;56.77
8253;BME280;61313;48.396;10.008;2023-02-21T04:23:41;96589.56;;;6.20;56.28
8253;BME280;61313;48.396;10.008;2023-02-21T04:26:06;96588.09;;;6.08;55.43
8253;BME280;61313;48.396;10.008;2023-02-21T04:28:31;96588.94;;;6.10;55.65
8253;BME280;61313;48.396;10.008;2023-02-21T04:30:57;96589.78;;;6.10;55.58
8253;BME280;61313;48.396;10.008;2023-02-21T04:33:22;96594.91;;;5.73;55.87
8253;BME280;61313;48.396;10.008;2023-02-21T04:35:48;96599.91;;;5.84;56.60
8253;BME280;61313;48.396;10.008;2023-02-21T04:38:14;96588.09;;;6.08;55.60
8253;BME280;61313;48.396;10.008;2023-02-21T04:40:40;96599.59;;;5.99;55.94
8253;BME280;61313;48.396;10.008;2023-02-21T04:43:05;96591.75;;;5.99;56.01
8253;BME280;61313;48.396;10.008;2023-02-21T04:45:31;96589.97;;;6.01;55.97
8253;BME280;61313;48.396;10.008;2023-02-21T04:47:56;96596.19;;;5.96;56.13
8253;BME280;61313;48.396;10.008;2023-02-21T04:50:22;96590.13;;;5.95;56.67
8253;BME280;61313;48.396;10.008;2023-02-21T04:52:47;96584.69;;;6.04;56.45
8253;BME280;61313;48.396;10.008;2023-02-21T04:55:14;96590.88;;;6.00;57.14
8253;BME280;61313;48.396;10.008;2023-02-21T04:57:39;96589.97;;;6.03;56.59
8253;BME280;61313;48.396;10.008;2023-02-21T05:00:05;96584.47;;;5.75;57.35
8253;BME280;61313;48.396;10.008;2023-02-21T05:02:32;96589.38;;;5.88;57.51
8253;BME280;61313;48.396;10.008;2023-02-21T05:04:57;96590.72;;;6.06;57.19
8253;BME280;61313;48.396;10.008;2023-02-21T05:07:23;96582.19;;;6.00;57.70
8253;BME280;61313;48.396;10.008;2023-02-21T05:09:48;96573.22;;;6.13;57.08
8253;BME280;61313;48.396;10.008;2023-02-21T05:12:14;96579.91;;;5.86;57.27
8253;BME280;61313;48.396;10.008;2023-02-21T05:14:40;96582.38;;;5.90;57.55
8253;BME280;61313;48.396;10.008;2023-02-21T05:17:06;96584.91;;;5.95;57.32
8253;BME280;61313;48.396;10.008;2023-02-21T05:19:32;96578.16;;;5.85;57.68
8253;BME280;61313;48.396;10.008;2023-02-21T05:21:59;96579.81;;;5.89;57.64
8253;BME280;61313;48.396;10.008;2023-02-21T05:24:26;96577.41;;;5.81;57.64
8253;BME280;61313;48.396;10.008;2023-02-21T05:26:52;96579.84;;;5.87;57.06
8253;BME280;61313;48.396;10.008;2023-02-21T05:29:18;96576.38;;;5.88;57.53
8253;BME280;61313;48.396;10.008;2023-02-21T05:31:45;96573.88;;;5.84;57.59
8253;BME280;61313;48.396;10.008;2023-02-21T05:34:11;96576.31;;;5.90;57.48
8253;BME280;61313;48.396;10.008;2023-02-21T05:36:37;96583.72;;;5.69;57.93
8253;BME280;61313;48.396;10.008;2023-02-21T05:39:03;96579.47;;;5.65;57.93
8253;BME280;61313;48.396;10.008;2023-02-21T05:41:29;96577.50;;;5.75;57.35
8253;BME280;61313;48.396;10.008;2023-02-21T05:43:54;96585.50;;;5.67;58.03
8253;BME280;61313;48.396;10.008;2023-02-21T05:46:21;96585.53;;;5.66;57.41
8253;BME280;61313;48.396;10.008;2023-02-21T05:48:47;96575.84;;;5.72;57.27
8253;BME280;61313;48.396;10.008;2023-02-21T05:51:13;96572.03;;;5.87;57.14
8253;BME280;61313;48.396;10.008;2023-02-21T05:53:39;96576.47;;;5.84;56.90
8253;BME280;61313;48.396;10.008;2023-02-21T05:56:04;96578.41;;;5.74;57.36
8253;BME280;61313;48.396;10.008;2023-02-21T05:58:30;96582.06;;;5.65;57.34
8253;BME280;61313;48.396;10.008;2023-02-21T06:00:55;96578.63;;;5.63;58.00
8253;BME280;61313;48.396;10.008;2023-02-21T06:03:21;96572.84;;;5.50;58.25
8253;BME280;61313;48.396;10.008;2023-02-21T06:05:46;96580.69;;;5.47;58.67
8253;BME280;61313;48.396;10.008;2023-02-21T06:08:11;96577.88;;;5.58;58.11
8253;BME280;61313;48.396;10.008;2023-02-21T06:10:37;96580.69;;;5.49;57.82
8253;BME280;61313;48.396;10.008;2023-02-21T06:13:02;96575.66;;;5.40;58.00
8253;BME280;61313;48.396;10.008;2023-02-21T06:15:28;96581.25;;;5.62;57.74
8253;BME280;61313;48.396;10.008;2023-02-21T06:17:53;96578.91;;;5.51;57.65
8253;BME280;61313;48.396;10.008;2023-02-21T06:20:19;96585.16;;;5.41;57.94
8253;BME280;61313;48.396;10.008;2023-02-21T06:22:44;96581.69;;;5.43;58.05
8253;BME280;61313;48.396;10.008;2023-02-21T06:25:10;96573.25;;;5.71;57.16
8253;BME280;61313;48.396;10.008;2023-02-21T06:27:35;96575.63;;;6.56;54.71
8253;BME280;61313;48.396;10.008;2023-02-21T06:30:02;96580.22;;;7.14;52.18
8253;BME280;61313;48.396;10.008;2023-02-21T06:32:28;96576.38;;;7.57;50.71
8253;BME280;61313;48.396;10.008;2023-02-21T06:34:53;96573.31;;;8.28;49.36
8253;BME280;61313;48.396;10.008;2023-02-21T06:37:18;96581.53;;;8.71;47.19
8253;BME280;61313;48.396;10.008;2023-02-21T06:39:44;96574.91;;;9.13;45.62
8253;BME280;61313;48.396;10.008;2023-02-21T06:42:14;96569.44;;;9.89;44.41
8253;BME280;61313;48.396;10.008;2023-02-21T06:44:42;96568.13;;;10.23;43.04
8253;BME280;61313;48.396;10.008;2023-02-21T06:47:09;96562.75;;;10.70;42.17
8253;BME280;61313;48.396;10.008;2023-02-21T06:49:34;96565.13;;;10.97;40.85
8253;BME280;61313;48.396;10.008;2023-02-21T06:52:00;96564.66;;;11.08;40.04
8253;BME280;61313;48.396;10.008;2023-02-21T06:54:25;96559.25;;;11.31;39.91
8253;BME280;61313;48.396;10.008;2023-02-21T06:56:50;96568.09;;;11.49;39.27
8253;BME280;61313;48.396;10.008;2023-02-21T06:59:16;96568.69;;;11.75;38.18
8253;BME280;61313;48.396;10.008;2023-02-21T07:01:41;96560.06;;;11.92;37.42
8253;BME280;61313;48.396;10.008;2023-02-21T07:04:08;96565.16;;;12.14;36.80
8253;BME280;61313;48.396;10.008;2023-02-21T07:06:34;96564.88;;;12.20;37.06
8253;BME280;61313;48.396;10.008;2023-02-21T07:09:00;96567.63;;;12.36;36.36
8253;BME280;61313;48.396;10.008;2023-02-21T07:11:26;96564.00;;;12.56;36.04
8253;BME280;61313;48.396;10.008;2023-02-21T07:13:53;96564.13;;;12.71;35.44
8253;BME280;61313;48.396;10.008;2023-02-21T07:16:21;96577.44;;;12.68;35.25
8253;BME280;61313;48.396;10.008;2023-02-21T07:18:46;96563.09;;;14.09;36.24
8253;BME280;61313;48.396;10.008;2023-02-21T07:21:13;96552.78;;;16.00;37.49
8253;BME280;61313;48.396;10.008;2023-02-21T07:23:39;96554.13;;;14.43;32.20
8253;BME280;61313;48.396;10.008;2023-02-21T07:26:06;96573.06;;;13.54;33.87
8253;BME280;61313;48.396;10.008;2023-02-21T07:28:32;96566.16;;;13.85;33.49
8253;BME280;61313;48.396;10.008;2023-02-21T07:30:57;96560.19;;;14.45;32.24
8253;BME280;61313;48.396;10.008;2023-02-21T07:33:23;96562.00;;;14.60;31.69
8253;BME280;61313;48.396;10.008;2023-02-21T07:35:48;96558.28;;;14.79;31.45
8253;BME280;61313;48.396;10.008;2023-02-21T07:38:25;96567.31;;;14.75;31.31
8253;BME280;61313;48.396;10.008;2023-02-21T07:40:54;96568.94;;;14.77;31.82
8253;BME280;61313;48.396;10.008;2023-02-21T07:43:19;96569.97;;;13.95;33.22
8253;BME280;61313;48.396;10.008;2023-02-21T07:45:45;96573.78;;;13.74;33.18
8253;BME280;61313;48.396;10.008;2023-02-21T07:48:10;96572.47;;;14.14;32.87
8253;BME280;61313;48.396;10.008;2023-02-21T07:50:40;96575.84;;;14.80;31.73
8253;BME280;61313;48.396;10.008;2023-02-21T07:53:05;96566.03;;;15.85;29.92
8253;BME280;61313;48.396;10.008;2023-02-21T07:55:31;96563.44;;;16.67;28.11
8253;BME280;61313;48.396;10.008;2023-02-21T07:57:57;96563.19;;;17.24;27.60
8253;BME280;61313;48.396;10.008;2023-02-21T08:00:23;96558.97;;;17.86;26.57
8253;BME280;61313;48.396;10.008;2023-02-21T08:02:49;96561.72;;;18.10;25.95
8253;BME280;61313;48.396;10.008;2023-02-21T08:05:16;96564.81;;;18.40;25.41
8253;BME280;61313;48.396;10.008;2023-02-21T08:07:42;96565.44;;;18.44;25.64
8253;BME280;61313;48.396;10.008;2023-02-21T08:10:08;96562.09;;;19.25;24.23
8253;BME280;61313;48.396;10.008;2023-02-21T08:12:34;96565.53;;;19.15;24.12
8253;BME280;61313;48.396;10.008;2023-02-21T08:14:59;96561.41;;;19.11;24.06
8253;BME280;61313;48.396;10.008;2023-02-21T08:17:25;96567.22;;;19.04;23.79
8253;BME280;61313;48.396;10.008;2023-02-21T08:19:50;96564.88;;;19.35;23.63
8253;BME280;61313;48.396;10.008;2023-02-21T08:22:16;96562.03;;;19.14;24.02
8253;BME280;61313;48.396;10.008;2023-02-21T08:24:41;96563.63;;;18.45;24.63
8253;BME280;61313;48.396;10.008;2023-02-21T08:27:06;96570.19;;;18.52;25.22
8253;BME280;61313;48.396;10.008;2023-02-21T08:29:32;96562.19;;;18.28;25.24
8253;BME280;61313;48.396;10.008;2023-02-21T08:31:57;96568.81;;;18.09;25.66
8253;BME280;61313;48.396;10.008;2023-02-21T08:34:23;96563.09;;;18.39;25.53
8253;BME280;61313;48.396;10.008;2023-02-21T08:36:49;96563.00;;;17.91;26.29
8253;BME280;61313;48.396;10.008;2023-02-21T08:39:15;96559.94;;;17.85;26.43
8253;BME280;61313;48.396;10.008;2023-02-21T08:41:42;96562.50;;;17.86;26.40
8253;BME280;61313;48.396;10.008;2023-02-21T08:44:10;96564.28;;;17.60;26.98
8253;BME280;61313;48.396;10.008;2023-02-21T08:46:36;96567.97;;;18.09;26.11
8253;BME280;61313;48.396;10.008;2023-02-21T08:49:03;96562.56;;;18.10;26.44
8253;BME280;61313;48.396;10.008;2023-02-21T08:51:30;96563.97;;;17.90;26.98
8253;BME280;61313;48.396;10.008;2023-02-21T08:53:56;96560.78;;;17.98;26.75
8253;BME280;61313;48.396;10.008;2023-02-21T08:56:23;96562.03;;;17.80;27.82
8253;BME280;61313;48.396;10.008;2023-02-21T08:58:49;96559.06;;;18.10;27.67
8253;BME280;61313;48.396;10.008;2023-02-21T09:01:14;96565.81;;;18.14;28.04
8253;BME280;61313;48.396;10.008;2023-02-21T09:03:40;96568.00;;;18.33;27.72
8253;BME280;61313;48.396;10.008;2023-02-21T09:06:06;96568.91;;;18.20;28.12
8253;BME280;61313;48.396;10.008;2023-02-21T09:08:32;96564.28;;;17.73;28.81
8253;BME280;61313;48.396;10.008;2023-02-21T09:10:58;96554.88;;;18.18;28.61
8253;BME280;61313;48.396;10.008;2023-02-21T09:13:25;96557.25;;;17.97;28.84
8253;BME280;61313;48.396;10.008;2023-02-21T09:15:51;96550.63;;;18.16;28.81
8253;BME280;61313;48.396;10.008;2023-02-21T09:18:16;96555.47;;;17.98;28.96
8253;BME280;61313;48.396;10.008;2023-02-21T09:20:42;96555.94;;;18.29;28.95
8253;BME280;61313;48.396;10.008;2023-02-21T09:23:08;96553.47;;;18.26;29.20
8253;BME280;61313;48.396;10.008;2023-02-21T09:25:34;96559.03;;;18.71;28.98
8253;BME280;61313;48.396;10.008;2023-02-21T09:27:59;96559.53;;;18.52;29.45
8253;BME280;61313;48.396;10.008;2023-02-21T09:30:26;96559.63;;;18.87;29.32
8253;BME280;61313;48.396;10.008;2023-02-21T09:32:57;96552.72;;;18.85;29.13
8253;BME280;61313;48.396;10.008;2023-02-21T09:35:22;96556.63;;;18.92;29.12
8253;BME280;61313;48.396;10.008;2023-02-21T09:37:48;96551.94;;;18.95;29.38
8253;BME280;61313;48.396;10.008;2023-02-21T09:42:42;96557.25;;;18.71;30.08
8253;BME280;61313;48.396;10.008;2023-02-21T09:45:14;96551.47;;;18.53;30.08
8253;BME280;61313;48.396;10.008;2023-02-21T09:47:42;96552.34;;;18.78;30.37
8253;BME280;61313;48.396;10.008;2023-02-21T09:50:14;96553.69;;;18.59;30.64
8253;BME280;61313;48.396;10.008;2023-02-21T09:52:40;96550.22;;;18.09;32.01
8253;BME280;61313;48.396;10.008;2023-02-21T09:55:36;96556.00;;;18.64;30.58
8253;BME280;61313;48.396;10.008;2023-02-21T09:58:04;96549.81;;;18.76;30.72
8253;BME280;61313;48.396;10.008;2023-02-21T10:00:36;96555.13;;;18.76;30.56
8253;BME280;61313;48.396;10.008;2023-02-21T10:17:20;96540.41;;;18.83;31.01
8253;BME280;61313;48.396;10.008;2023-02-21T10:19:50;96538.00;;;18.92;30.52
8253;BME280;61313;48.396;10.008;2023-02-21T10:22:21;96550.00;;;18.49;31.17
8253;BME280;61313;48.396;10.008;2023-02-21T10:24:48;96539.19;;;18.76;30.59
8253;BME280;61313;48.396;10.008;2023-02-21T10:27:19;96538.88;;;18.92;30.37
8253;BME280;61313;48.396;10.008;2023-02-21T10:30:03;96538.69;;;19.07;30.38
8253;BME280;61313;48.396;10.008;2023-02-21T10:32:30;96543.19;;;18.82;30.38
8253;BME280;61313;48.396;10.008;2023-02-21T10:34:56;96542.50;;;18.43;31.58
8253;BME280;61313;48.396;10.008;2023-02-21T10:37:51;96549.88;;;18.14;31.84
8253;BME280;61313;48.396;10.008;2023-02-21T10:40:29;96548.88;;;18.40;31.92
8253;BME280;61313;48.396;10.008;2023-02-21T10:43:10;96533.31;;;18.71;31.39
8253;BME280;61313;48.396;10.008;2023-02-21T10:45:52;96540.66;;;18.44;31.45
8253;BME280;61313;48.396;10.008;2023-02-21T10:48:24;96534.28;;;18.22;31.93
8253;BME280;61313;48.396;10.008;2023-02-21T10:51:17;96536.88;;;18.59;31.82
8253;BME280;61313;48.396;10.008;2023-02-21T10:53:52;96524.13;;;18.75;31.40
8253;BME280;61313;48.396;10.008;2023-02-21T10:56:21;96523.88;;;18.91;31.74
8253;BME280;61313;48.396;10.008;2023-02-21T11:03:59;96514.38;;;19.00;31.25
8253;BME280;61313;48.396;10.008;2023-02-21T11:08:57;96509.59;;;19.28;30.66
8253;BME280;61313;48.396;10.008;2023-02-21T11:11:33;96507.88;;;19.27;30.50
8253;BME280;61313;48.396;10.008;2023-02-21T11:16:42;96495.88;;;19.10;31.11
8253;BME280;61313;48.396;10.008;2023-02-21T11:19:12;96501.06;;;19.00;30.50
8253;BME280;61313;48.396;10.008;2023-02-21T11:21:41;96497.47;;;19.12;30.57
8253;BME280;61313;48.396;10.008;2023-02-21T11:24:10;96484.75;;;19.04;30.39
8253;BME280;61313;48.396;10.008;2023-02-21T11:26:44;96489.66;;;18.87;30.12
8253;BME280;61313;48.396;10.008;2023-02-21T11:29:17;96477.94;;;18.89;29.66
8253;BME280;61313;48.396;10.008;2023-02-21T11:31:43;96470.19;;;18.86;28.66
8253;BME280;61313;48.396;10.008;2023-02-21T11:34:11;96481.25;;;19.04;28.95
8253;BME280;61313;48.396;10.008;2023-02-21T11:36:40;96475.47;;;19.21;28.90
8253;BME280;61313;48.396;10.008;2023-02-21T11:41:54;96470.16;;;19.44;29.42
8253;BME280;61313;48.396;10.008;2023-02-21T11:44:32;96463.41;;;19.40;29.58
8253;BME280;61313;48.396;10.008;2023-02-21T11:47:18;96461.78;;;19.15;30.16
8253;BME280;61313;48.396;10.008;2023-02-21T11:52:43;96453.22;;;18.40;31.85
8253;BME280;61313;48.396;10.008;2023-02-21T11:55:19;96453.84;;;18.20;31.70
8253;BME280;61313;48.396;10.008;2023-02-21T12:00:52;96442.47;;;18.18;31.94
8253;BME280;61313;48.396;10.008;2023-02-21T12:06:45;96434.09;;;18.71;30.64
8253;BME280;61313;48.396;10.008;2023-02-21T12:17:36;96413.78;;;19.05;29.30
8253;BME280;61313;48.396;10.008;2023-02-21T12:23:07;96401.44;;;18.22;30.90
8253;BME280;61313;48.396;10.008;2023-02-21T12:31:53;96386.56;;;18.90;27.32
8253;BME280;61313;48.396;10.008;2023-02-21T12:37:13;96375.72;;;19.16;27.35
8253;BME280;61313;48.396;10.008;2023-02-21T12:45:22;96353.59;;;19.04;28.65
8253;BME280;61313;48.396;10.008;2023-02-21T12:48:00;96359.06;;;18.67;28.19
8253;BME280;61313;48.396;10.008;2023-02-21T12:50:39;96348.38;;;18.45;28.46
8253;BME280;61313;48.396;10.008;2023-02-21T12:53:11;96353.69;;;18.45;28.89
8253;BME280;61313;48.396;10.008;2023-02-21T12:55:45;96336.25;;;18.76;29.33
8253;BME280;61313;48.396;10.008;2023-02-21T12:58:20;96334.53;;;18.52;28.84
8253;BME280;61313;48.396;10.008;2023-02-21T13:03:47;96328.91;;;18.79;28.95
8253;BME280;61313;48.396;10.008;2023-02-21T13:06:24;96322.03;;;18.88;28.46
8253;BME280;61313;48.396;10.008;2023-02-21T13:09:14;96316.56;;;18.90;27.06
8253;BME280;61313;48.396;10.008;2023-02-21T13:11:58;96311.03;;;18.93;27.03
8253;BME280;61313;48.396;10.008;2023-02-21T13:14:33;96305.97;;;18.78;27.76
8253;BME280;61313;48.396;10.008;2023-02-21T13:17:00;96306.69;;;18.80;27.87
8253;BME280;61313;48.396;10.008;2023-02-21T13:19:33;96305.81;;;18.69;28.41
8253;BME280;61313;48.396;10.008;2023-02-21T13:25:45;96298.94;;;18.89;27.73
8253;BME280;61313;48.396;10.008;2023-02-21T13:28:22;96282.34;;;18.74;27.77
8253;BME280;61313;48.396;10.008;2023-02-21T13:31:05;96288.63;;;18.73;34.74
8253;BME280;61313;48.396;10.008;2023-02-21T13:33:41;96281.53;;;18.73;33.46
8253;BME280;61313;48.396;10.008;2023-02-21T13:36:38;96272.56;;;18.74;34.95
8253;BME280;61313;48.396;10.008;2023-02-21T13:39:18;96271.84;;;18.72;34.45
8253;BME280;61313;48.396;10.008;2023-02-21T13:41:52;96266.53;;;18.72;30.94
8253;BME280;61313;48.396;10.008;2023-02-21T13:44:25;96262.28;;;18.70;28.36
8253;BME280;61313;48.396;10.008;2023-02-21T13:49:50;96256.59;;;18.63;36.05
8253;BME280;61313;48.396;10.008;2023-02-21T14:08:18;96234.09;;;18.11;28.72
8253;BME280;61313;48.396;10.008;2023-02-21T14:10:50;96235.78;;;17.76;29.15
8253;BME280;61313;48.396;10.008;2023-02-21T14:21:43;96211.78;;;17.19;30.44
8253;BME280;61313;48.396;10.008;2023-02-21T14:43:16;96194.72;;;17.58;30.67
8253;BME280;61313;48.396;10.008;2023-02-21T14:51:39;96187.94;;;17.89;31.80
8253;BME280;61313;48.396;10.008;2023-02-21T14:59:58;96185.16;;;17.55;30.49
8253;BME280;61313;48.396;10.008;2023-02-21T15:02:55;96185.66;;;17.61;31.37
8253;BME280;61313;48.396;10.008;2023-02-21T15:10:43;96184.19;;;16.97;31.31
8253;BME280;61313;48.396;10.008;2023-02-21T15:16:06;96175.66;;;17.29;31.02
8253;BME280;61313;48.396;10.008;2023-02-21T15:18:34;96174.13;;;17.38;31.92
8253;BME280;61313;48.396;10.008;2023-02-21T15:21:19;96175.78;;;17.63;31.54
8253;BME280;61313;48.396;10.008;2023-02-21T15:23:58;96164.09;;;17.65;32.40
8253;BME280;61313;48.396;10.008;2023-02-21T15:26:27;96165.25;;;17.85;32.24
8253;BME280;61313;48.396;10.008;2023-02-21T15:31:39;96165.66;;;17.68;30.94
8253;BME280;61313;48.396;10.008;2023-02-21T15:34:15;96161.50;;;17.52;31.30
8253;BME280;61313;48.396;10.008;2023-02-21T15:36:46;96170.53;;;17.50;31.76
8253;BME280;61313;48.396;10.008;2023-02-21T15:39:28;96161.34;;;17.78;33.62
8253;BME280;61313;48.396;10.008;2023-02-21T15:41:55;96164.94;;;17.66;30.89
8253;BME280;61313;48.396;10.008;2023-02-21T15:47:08;96162.81;;;17.47;32.23
8253;BME280;61313;48.396;10.008;2023-02-21T15:52:43;96158.13;;;17.15;31.62
8253;BME280;61313;48.396;10.008;2023-02-21T15:57:38;96158.91;;;17.04;31.59
8253;BME280;61313;48.396;10.008;2023-02-21T16:02:50;96158.44;;;16.86;32.12
8253;BME280;61313;48.396;10.008;2023-02-21T16:05:29;96150.47;;;16.99;32.04
8253;BME280;61313;48.396;10.008;2023-02-21T16:08:02;96150.78;;;16.95;32.20
8253;BME280;61313;48.396;10.008;2023-02-21T16:10:29;96141.88;;;16.59;32.84
8253;BME280;61313;48.396;10.008;2023-02-21T16:12:59;96139.09;;;16.60;33.13
8253;BME280;61313;48.396;10.008;2023-02-21T16:15:29;96146.53;;;16.55;33.34
8253;BME280;61313;48.396;10.008;2023-02-21T16:17:57;96146.41;;;16.33;33.67
8253;BME280;61313;48.396;10.008;2023-02-21T16:20:30;96145.78;;;16.03;34.55
8253;BME280;61313;48.396;10.008;2023-02-21T16:28:22;96144.69;;;15.55;35.96
8253;BME280;61313;48.396;10.008;2023-02-21T16:30:47;96146.25;;;15.44;36.62
8253;BME280;61313;48.396;10.008;2023-02-21T16:33:13;96145.94;;;15.36;37.10
8253;BME280;61313;48.396;10.008;2023-02-21T16:35:39;96146.69;;;15.38;36.76
8253;BME280;61313;48.396;10.008;2023-02-21T16:38:04;96141.16;;;15.29;37.24
8253;BME280;61313;48.396;10.008;2023-02-21T16:40:34;96141.69;;;15.46;37.04